createdAt,value
2022-09-09T00:03:02.324Z,5.25
2022-09-09T00:06:32.303Z,1.60
2022-09-09T00:09:46.874Z,1.70
2022-09-09T00:13:24.869Z,1.80
2022-09-09T00:16:31.911Z,1.62
2022-09-09T00:19:44.579Z,1.67
2022-09-09T00:23:00.786Z,3.33
2022-09-09T00:26:15.233Z,2.65
2022-09-09T00:29:30.150Z,1.65
2022-09-09T00:32:36.579Z,2.75
2022-09-09T00:35:42.222Z,1.55
2022-09-09T00:38:50.254Z,1.40
2022-09-09T00:42:29.772Z,1.77
2022-09-09T00:45:56.688Z,1.73
2022-09-09T00:49:22.000Z,1.87
2022-09-09T00:52:37.531Z,2.00
2022-09-09T00:56:10.311Z,1.90
2022-09-09T00:59:33.238Z,1.75
2022-09-09T01:02:35.278Z,3.25
2022-09-09T01:05:51.807Z,2.00
2022-09-09T01:09:14.018Z,2.05
2022-09-09T01:12:19.110Z,1.70
2022-09-09T01:15:28.897Z,5.12
2022-09-09T01:18:38.155Z,1.50
2022-09-09T01:21:45.696Z,2.00
2022-09-09T01:25:26.794Z,2.45
2022-09-09T01:31:42.253Z,1.87
2022-09-09T01:34:44.659Z,2.33
2022-09-09T01:37:47.118Z,1.67
2022-09-09T01:40:50.175Z,2.22
2022-09-09T01:43:55.550Z,1.70
2022-09-09T01:46:58.306Z,2.92
2022-09-09T01:50:02.101Z,1.73
2022-09-09T01:53:04.984Z,2.30
2022-09-09T01:56:26.641Z,3.62
2022-09-09T01:59:50.725Z,1.62
2022-09-09T02:03:24.749Z,1.40
2022-09-09T02:06:40.888Z,1.50
2022-09-09T02:09:48.050Z,2.67
2022-09-09T02:12:57.328Z,1.37
2022-09-09T02:16:07.185Z,1.40
2022-09-09T02:19:14.242Z,1.25
2022-09-09T02:22:19.767Z,1.20
2022-09-09T02:25:25.497Z,1.23
2022-09-09T02:28:30.958Z,1.37
2022-09-09T02:31:36.442Z,2.12
2022-09-09T02:34:45.284Z,2.37
2022-09-09T02:37:47.688Z,1.60
2022-09-09T02:40:50.050Z,1.30
2022-09-09T02:43:52.564Z,3.70
2022-09-09T02:47:10.100Z,1.90
2022-09-09T02:50:36.024Z,2.05
2022-09-09T02:54:00.208Z,1.45
2022-09-09T02:57:10.331Z,1.42
2022-09-09T03:00:13.505Z,1.98
2022-09-09T03:03:17.572Z,1.80
2022-09-09T03:06:19.988Z,1.80
2022-09-09T03:09:22.488Z,1.48
2022-09-09T03:12:25.282Z,1.80
2022-09-09T03:15:31.089Z,2.92
2022-09-09T03:18:35.451Z,2.28
2022-09-09T03:21:37.766Z,1.83
2022-09-09T03:24:40.171Z,2.10
2022-09-09T03:27:42.241Z,4.50
2022-09-09T03:30:45.382Z,1.98
2022-09-09T03:33:48.813Z,1.92
2022-09-09T03:36:51.686Z,2.80
2022-09-09T03:39:55.551Z,3.78
2022-09-09T03:42:58.062Z,2.42
2022-09-09T03:46:01.099Z,2.47
2022-09-09T03:49:05.029Z,3.95
2022-09-09T03:52:07.391Z,3.67
2022-09-09T03:55:10.232Z,4.28
2022-09-09T03:58:17.290Z,2.80
2022-09-09T04:01:19.880Z,2.20
2022-09-09T04:04:23.099Z,3.72
2022-09-09T04:07:25.191Z,3.30
2022-09-09T04:10:27.727Z,2.85
2022-09-09T04:13:31.034Z,2.65
2022-09-09T04:16:35.206Z,2.17
2022-09-09T04:19:38.258Z,2.55
2022-09-09T04:22:40.696Z,2.22
2022-09-09T04:25:47.785Z,2.33
2022-09-09T04:28:50.976Z,1.77
2022-09-09T04:31:54.213Z,2.47
2022-09-09T04:34:56.721Z,2.62
2022-09-09T04:37:59.453Z,2.97
2022-09-09T04:41:02.420Z,2.30
2022-09-09T04:44:05.038Z,3.35
2022-09-09T04:47:08.207Z,4.90
2022-09-09T04:50:10.426Z,2.92
2022-09-09T04:53:12.882Z,4.35
2022-09-09T04:56:16.967Z,3.10
2022-09-09T04:59:20.210Z,3.70
2022-09-09T05:02:22.742Z,1.98
2022-09-09T05:05:26.636Z,2.30
2022-09-09T05:08:28.922Z,2.35
2022-09-09T05:11:33.522Z,4.53
2022-09-09T05:14:38.174Z,2.55
2022-09-09T05:17:41.210Z,2.58
2022-09-09T05:20:43.872Z,2.37
2022-09-09T05:23:47.130Z,3.15
2022-09-09T05:26:49.528Z,2.20
2022-09-09T05:29:52.755Z,2.70
2022-09-09T05:32:57.528Z,3.03
2022-09-09T05:36:02.589Z,4.65
2022-09-09T05:39:05.371Z,5.32
2022-09-09T05:42:08.187Z,2.17
2022-09-09T05:45:11.304Z,4.87
2022-09-09T05:48:16.904Z,4.15
2022-09-09T05:51:25.570Z,2.47
2022-09-09T05:54:29.089Z,2.85
2022-09-09T05:57:31.360Z,2.62
2022-09-09T06:00:33.827Z,3.95
2022-09-09T06:03:37.817Z,5.62
2022-09-09T06:06:40.892Z,3.20
2022-09-09T06:09:44.426Z,2.97
2022-09-09T06:12:47.815Z,5.22
2022-09-09T06:15:52.168Z,2.90
2022-09-09T06:18:55.931Z,2.12
2022-09-09T06:21:59.777Z,1.85
2022-09-09T06:25:02.790Z,2.22
2022-09-09T06:28:05.334Z,2.17
2022-09-09T06:31:11.486Z,2.65
2022-09-09T06:34:14.171Z,3.22
2022-09-09T06:37:16.673Z,2.10
2022-09-09T06:40:19.442Z,4.25
2022-09-09T06:43:22.643Z,4.10
2022-09-09T06:46:29.056Z,3.08
2022-09-09T06:49:31.323Z,5.22
2022-09-09T06:52:34.603Z,2.12
2022-09-09T06:55:36.921Z,4.45
2022-09-09T06:58:45.038Z,5.25
2022-09-09T07:01:50.307Z,2.10
2022-09-09T07:04:54.883Z,7.05
2022-09-09T07:07:57.027Z,2.60
2022-09-09T07:11:12.075Z,2.55
2022-09-09T07:14:16.173Z,7.10
2022-09-09T07:17:19.613Z,4.93
2022-09-09T07:20:21.781Z,6.00
2022-09-09T07:23:25.186Z,4.68
2022-09-09T07:26:30.686Z,4.10
2022-09-09T07:29:33.594Z,2.47
2022-09-09T07:32:35.704Z,2.25
2022-09-09T07:35:38.139Z,3.25
2022-09-09T07:38:44.408Z,2.92
2022-09-09T07:41:49.118Z,4.72
2022-09-09T07:44:55.779Z,3.60
2022-09-09T07:47:58.667Z,3.60
2022-09-09T07:51:14.631Z,2.75
2022-09-09T07:54:24.430Z,4.85
2022-09-09T07:57:27.024Z,7.50
2022-09-09T08:00:29.752Z,3.95
2022-09-09T08:03:32.669Z,3.42
2022-09-09T08:06:42.128Z,4.87
2022-09-09T08:09:44.933Z,1.75
2022-09-09T08:13:01.371Z,2.37
2022-09-09T08:16:31.607Z,2.83
2022-09-09T08:19:36.728Z,3.22
2022-09-09T08:22:39.199Z,3.37
2022-09-09T08:25:41.622Z,1.75
2022-09-09T08:28:44.613Z,4.43
2022-09-09T08:31:53.178Z,2.28
2022-09-09T08:35:01.214Z,1.92
2022-09-09T08:38:07.638Z,1.37
2022-09-09T08:41:18.554Z,1.17
2022-09-09T08:44:39.050Z,3.53
2022-09-09T08:48:14.805Z,1.58
2022-09-09T08:51:18.635Z,3.15
2022-09-09T08:54:48.489Z,2.00
2022-09-09T08:57:46.561Z,4.85
2022-09-09T09:01:27.805Z,2.15
2022-09-09T09:04:55.490Z,1.25
2022-09-09T09:08:32.157Z,1.70
2022-09-09T09:11:40.302Z,12.57
2022-09-09T09:14:45.366Z,4.10
2022-09-09T09:17:47.947Z,1.05
2022-09-09T09:21:17.303Z,0.77
2022-09-09T09:24:40.838Z,2.90
2022-09-09T09:28:13.861Z,1.42
2022-09-09T09:31:16.451Z,0.70
2022-09-09T09:34:19.289Z,4.57
2022-09-09T09:37:29.399Z,2.10
2022-09-09T09:40:32.283Z,1.55
2022-09-09T09:43:41.155Z,4.20
2022-09-09T09:46:44.248Z,1.83
2022-09-09T09:49:59.609Z,0.82
2022-09-09T09:53:05.350Z,0.95
2022-09-09T09:56:11.254Z,1.73
2022-09-09T09:59:39.090Z,1.35
2022-09-09T10:02:44.635Z,1.12
2022-09-09T10:05:48.143Z,3.12
2022-09-09T10:08:53.083Z,2.92
2022-09-09T10:12:27.075Z,0.93
2022-09-09T10:15:44.274Z,1.60
2022-09-09T10:19:09.897Z,1.30
2022-09-09T10:22:20.989Z,0.40
2022-09-09T10:25:45.210Z,0.43
2022-09-09T10:29:08.484Z,0.93
2022-09-09T10:32:39.448Z,2.05
2022-09-09T10:35:53.467Z,0.62
2022-09-09T10:39:06.203Z,1.77
2022-09-09T10:42:13.432Z,4.60
2022-09-09T10:45:22.741Z,0.70
2022-09-09T10:48:58.946Z,2.53
2022-09-09T10:52:14.578Z,0.50
2022-09-09T10:55:29.721Z,0.52
2022-09-09T10:58:45.185Z,2.10
2022-09-09T11:01:50.266Z,1.55
2022-09-09T11:05:01.017Z,0.70
2022-09-09T11:08:13.227Z,2.72
2022-09-09T11:11:42.549Z,0.50
2022-09-09T11:14:50.608Z,2.17
2022-09-09T11:18:02.217Z,0.50
2022-09-09T11:21:13.665Z,1.52
2022-09-09T11:24:24.739Z,1.98
2022-09-09T11:27:44.994Z,2.12
2022-09-09T11:30:56.455Z,5.00
2022-09-09T11:34:19.935Z,0.60
2022-09-09T11:37:46.763Z,1.30
2022-09-09T11:40:56.331Z,1.50
2022-09-09T11:43:59.375Z,1.60
2022-09-09T11:47:01.441Z,4.45
2022-09-09T11:50:15.614Z,1.55
2022-09-09T11:53:23.497Z,1.70
2022-09-09T11:56:43.147Z,1.27
2022-09-09T11:59:53.164Z,1.35
2022-09-09T12:02:55.556Z,0.85
2022-09-09T12:05:59.415Z,2.70
2022-09-09T12:09:11.940Z,1.50
2022-09-09T12:12:14.463Z,3.12
2022-09-09T12:15:16.425Z,2.15
2022-09-09T12:18:40.847Z,1.15
2022-09-09T12:21:45.957Z,1.95
2022-09-09T12:25:04.291Z,2.67
2022-09-09T12:28:16.039Z,0.95
2022-09-09T12:31:45.994Z,1.00
2022-09-09T12:34:56.562Z,2.10
2022-09-09T12:38:05.371Z,1.65
2022-09-09T12:41:25.373Z,2.05
2022-09-09T12:44:31.011Z,0.75
2022-09-09T12:47:51.713Z,1.98
2022-09-09T12:50:56.703Z,2.47
2022-09-09T12:54:00.362Z,3.15
2022-09-09T12:57:03.394Z,0.82
2022-09-09T13:00:13.604Z,1.60
2022-09-09T13:03:19.096Z,2.33
2022-09-09T13:06:31.820Z,1.48
2022-09-09T13:09:34.202Z,2.17
2022-09-09T13:12:36.403Z,5.40
2022-09-09T13:15:38.800Z,0.82
2022-09-09T13:18:43.135Z,1.00
2022-09-09T13:21:45.588Z,5.25
2022-09-09T13:24:47.835Z,1.12
2022-09-09T13:28:03.424Z,2.58
2022-09-09T13:31:20.062Z,4.62
2022-09-09T13:34:34.303Z,0.80
2022-09-09T13:37:38.910Z,1.58
2022-09-09T13:40:41.743Z,0.60
2022-09-09T13:43:46.256Z,1.10
2022-09-09T13:46:48.655Z,2.55
2022-09-09T13:49:50.768Z,1.00
2022-09-09T13:52:55.397Z,1.60
2022-09-09T13:55:59.028Z,1.92
2022-09-09T13:59:01.484Z,3.58
2022-09-09T14:02:03.609Z,1.48
2022-09-09T14:05:06.453Z,1.50
2022-09-09T14:08:16.569Z,0.50
2022-09-09T14:11:20.244Z,3.75
2022-09-09T14:14:22.353Z,0.88
2022-09-09T14:17:25.997Z,0.75
2022-09-09T14:20:28.083Z,2.45
2022-09-09T14:23:30.601Z,1.45
2022-09-09T14:26:33.415Z,0.88
2022-09-09T14:29:35.745Z,1.65
2022-09-09T14:32:37.835Z,2.12
2022-09-09T14:35:42.039Z,2.62
2022-09-09T14:38:44.168Z,2.92
2022-09-09T14:41:46.764Z,1.80
2022-09-09T14:44:48.877Z,3.67
2022-09-09T14:47:52.509Z,3.50
2022-09-09T14:50:54.726Z,0.75
2022-09-09T14:53:59.635Z,2.37
2022-09-09T14:57:01.731Z,4.30
2022-09-09T15:00:05.348Z,1.73
2022-09-09T15:03:07.438Z,1.60
2022-09-09T15:06:12.503Z,1.12
2022-09-09T15:09:15.321Z,3.53
2022-09-09T15:12:19.768Z,1.95
2022-09-09T15:15:22.043Z,1.58
2022-09-09T15:18:24.728Z,3.55
2022-09-09T15:21:29.847Z,1.60
2022-09-09T15:24:36.185Z,1.17
2022-09-09T15:27:40.050Z,1.30
2022-09-09T15:30:42.411Z,1.62
2022-09-09T15:33:52.616Z,2.22
2022-09-09T15:36:56.467Z,1.75
2022-09-09T15:39:59.770Z,5.72
2022-09-09T15:43:03.133Z,1.23
2022-09-09T15:46:33.178Z,2.78
2022-09-09T15:49:35.640Z,5.05
2022-09-09T15:52:37.689Z,2.28
2022-09-09T15:55:40.125Z,1.73
2022-09-09T15:58:44.815Z,3.30
2022-09-09T16:01:47.224Z,1.52
2022-09-09T16:04:49.685Z,5.70
2022-09-09T16:07:53.260Z,1.85
2022-09-09T16:10:55.856Z,2.42
2022-09-09T16:13:58.201Z,0.98
2022-09-09T16:17:01.083Z,5.37
2022-09-09T16:20:03.451Z,2.00
2022-09-09T16:23:05.769Z,2.47
2022-09-09T16:26:11.489Z,2.40
2022-09-09T16:29:15.612Z,2.15
2022-09-09T16:32:17.671Z,2.75
2022-09-09T16:35:21.021Z,4.05
2022-09-09T16:38:23.149Z,3.42
2022-09-09T16:41:28.582Z,2.85
2022-09-09T16:44:30.915Z,2.83
2022-09-09T16:47:33.247Z,1.77
2022-09-09T16:50:35.413Z,1.70
2022-09-09T16:53:37.907Z,4.47
2022-09-09T16:56:42.664Z,3.55
2022-09-09T16:59:44.999Z,3.40
2022-09-09T17:02:47.501Z,3.42
2022-09-09T17:05:49.900Z,10.02
2022-09-09T17:09:00.662Z,3.35
2022-09-09T17:12:03.131Z,2.20
2022-09-09T17:15:06.361Z,3.55
2022-09-09T17:18:12.156Z,2.08
2022-09-09T17:21:17.851Z,4.72
2022-09-09T17:24:20.210Z,3.42
2022-09-09T17:27:22.273Z,2.78
2022-09-09T17:30:24.822Z,1.08
2022-09-09T17:33:28.275Z,3.25
2022-09-09T17:36:34.122Z,1.60
2022-09-09T17:39:36.642Z,1.33
2022-09-09T17:42:39.039Z,1.15
2022-09-09T17:45:41.188Z,3.58
2022-09-09T17:48:45.496Z,5.07
2022-09-09T17:51:47.802Z,2.80
2022-09-09T17:54:50.490Z,2.05
2022-09-09T17:57:52.550Z,2.25
2022-09-09T18:00:55.799Z,3.47
2022-09-09T18:04:01.663Z,5.55
2022-09-09T18:07:03.780Z,2.50
2022-09-09T18:10:06.800Z,4.93
2022-09-09T18:13:09.980Z,2.20
2022-09-09T18:16:12.399Z,2.30
2022-09-09T18:19:17.041Z,5.00
2022-09-09T18:22:19.892Z,6.18
2022-09-09T18:25:21.967Z,4.22
2022-09-09T18:28:26.616Z,3.97
2022-09-09T18:31:29.395Z,5.30
2022-09-09T18:34:31.959Z,6.60
2022-09-09T18:37:34.081Z,3.42
2022-09-09T18:40:37.496Z,3.62
2022-09-09T18:43:39.587Z,4.80
2022-09-09T18:46:42.930Z,4.00
2022-09-09T18:49:46.992Z,2.00
2022-09-09T18:52:49.377Z,4.28
2022-09-09T18:55:59.125Z,3.85
2022-09-09T18:59:04.239Z,4.72
2022-09-09T19:02:06.348Z,5.22
2022-09-09T19:05:08.855Z,4.43
2022-09-09T19:08:10.983Z,6.85
2022-09-09T19:11:19.273Z,3.90
2022-09-09T19:14:21.893Z,4.68
2022-09-09T19:17:26.039Z,3.22
2022-09-09T19:20:28.099Z,2.62
2022-09-09T19:23:31.387Z,5.60
2022-09-09T19:26:40.655Z,2.62
2022-09-09T19:29:44.445Z,5.10
2022-09-09T19:32:54.278Z,3.40
2022-09-09T19:36:04.420Z,4.32
2022-09-09T19:39:08.306Z,2.80
2022-09-09T19:42:10.621Z,5.68
2022-09-09T19:45:12.691Z,4.57
2022-09-09T19:48:15.253Z,6.70
2022-09-09T19:51:22.105Z,3.80
2022-09-09T19:54:24.477Z,3.33
2022-09-09T19:57:30.309Z,4.62
2022-09-09T20:00:34.351Z,4.35
2022-09-09T20:03:38.189Z,3.20
2022-09-09T20:06:42.461Z,4.25
2022-09-09T20:09:44.883Z,4.12
2022-09-09T20:12:46.922Z,3.65
2022-09-09T20:16:15.719Z,3.78
2022-09-09T20:19:18.122Z,6.50
2022-09-09T20:22:20.462Z,5.65
2022-09-09T20:25:24.759Z,3.25
2022-09-09T20:28:27.077Z,3.20
2022-09-09T20:31:30.683Z,6.57
2022-09-09T20:34:33.031Z,8.65
2022-09-09T20:37:35.119Z,8.30
2022-09-09T20:40:38.687Z,7.03
2022-09-09T20:43:52.039Z,7.47
2022-09-09T20:47:00.029Z,5.55
2022-09-09T20:50:02.295Z,7.72
2022-09-09T20:53:04.608Z,7.05
2022-09-09T20:56:07.302Z,6.32
2022-09-09T20:59:13.966Z,6.62
2022-09-09T21:02:16.046Z,10.15
2022-09-09T21:05:23.392Z,9.07
2022-09-09T21:08:28.043Z,7.62
2022-09-09T21:11:30.727Z,7.90
2022-09-09T21:14:32.841Z,7.87
2022-09-09T21:17:35.314Z,10.27
2022-09-09T21:20:37.912Z,8.48
2022-09-09T21:23:40.278Z,8.32
2022-09-09T21:26:42.339Z,10.15
2022-09-09T21:29:44.763Z,9.65
2022-09-09T21:32:46.951Z,8.48
2022-09-09T21:35:50.168Z,8.50
2022-09-09T21:38:52.261Z,8.10
2022-09-09T21:41:54.849Z,8.98
2022-09-09T21:44:57.661Z,9.80
2022-09-09T21:48:00.313Z,8.50
2022-09-09T21:51:05.763Z,8.05
2022-09-09T21:54:08.139Z,8.95
2022-09-09T21:57:11.497Z,9.35
2022-09-09T22:00:17.869Z,9.07
2022-09-09T22:03:20.834Z,8.85
2022-09-09T22:06:22.893Z,9.52
2022-09-09T22:09:25.250Z,9.07
2022-09-09T22:12:27.809Z,10.50
2022-09-09T22:15:32.504Z,10.40
2022-09-09T22:18:35.128Z,10.45
2022-09-09T22:21:37.566Z,12.50
2022-09-09T22:24:39.695Z,10.45
2022-09-09T22:27:42.038Z,9.68
2022-09-09T22:30:44.147Z,7.65
2022-09-09T22:33:47.186Z,7.07
2022-09-09T22:36:51.059Z,7.97
2022-09-09T22:39:53.435Z,7.40
2022-09-09T22:42:56.930Z,7.22
2022-09-09T22:46:03.057Z,5.53
2022-09-09T22:49:05.530Z,6.93
2022-09-09T22:52:10.002Z,5.53
2022-09-09T22:55:12.059Z,5.47
2022-09-09T23:01:19.552Z,5.18
2022-09-09T23:04:22.818Z,5.03
2022-09-09T23:07:24.920Z,5.65
2022-09-09T23:10:33.057Z,4.82
2022-09-09T23:13:37.126Z,5.57
2022-09-09T23:16:43.365Z,4.95
2022-09-09T23:19:45.514Z,5.72
2022-09-09T23:22:47.857Z,4.90
2022-09-09T23:25:49.926Z,4.85
2022-09-09T23:28:54.349Z,6.72
2022-09-09T23:31:56.416Z,4.60
2022-09-09T23:34:58.935Z,6.18
2022-09-09T23:38:01.009Z,5.57
2022-09-09T23:41:05.435Z,6.62
2022-09-09T23:44:08.113Z,4.78
2022-09-09T23:47:10.438Z,4.62
2022-09-09T23:50:12.538Z,4.47
2022-09-09T23:53:15.452Z,6.72
2022-09-09T23:56:21.609Z,5.28
2022-09-09T23:59:24.013Z,5.97
